Portada
METAR-TAF:

METAR-TAF

Aeropuertos :

Ilulissat, Groenlandia

latitud: 69-14N, longitud: 051-04W, altitud: 29 m

Observación

El informe se hizo hace 11 minutos, a las 14:50 UTC
Viento 1 kt del este
Temperatura -9°C
Humedad 40%
Presión 1008 hPa
Visibilidad 10 km o más
Cielo nuboso a una altura de 20000 ft

METAR: BGJN 041450Z 10001KT 9999 BKN200 M09/M20 Q1008

Hora: 12:01 (15:01 UTC)

Pronóstico

El informe se hizo hace 47 minutos, a las 14:14 UTC
Pronóstico válido del 04 a las 15 UTC al 04 a las 23 UTC
Viento 6 kt del este-sureste
Visibilidad 10 km o más
Nubes dispersas a una altura de 18000 ft

TAF: BGJN 041414Z 0415/0423 12006KT 9999 SCT180

Observaciones y pronósticos meteorológicos de más de 4000 aeropuertos (mensajes METAR y TAF).

Los puntos amarillos y rojos representan las estaciones disponibles.

Ponga el ratón en el punto deseado para ver el nombre de la estación.

Haga clic para ver las observaciones y los pronósticos meteorológicos.

Para cambiar el mapa : haga clic en los botones verdes con una cruz de color negro para hacer un zoom, en el botón verde con un guión para alejar o en las flechas verdes para mapas adyacentes.


METAR-TAF: